sensor_id;sensor_type;location;lat;lon;timestamp;pressure;altitude;pressure_sealevel;temperature;humidity
67931;BME280;63902;52.000;5.954;2023-04-06T00:00:10;101472.78;;;1.30;59.80
67931;BME280;63902;52.000;5.954;2023-04-06T00:01:10;101467.59;;;1.32;59.82
67931;BME280;63902;52.000;5.954;2023-04-06T00:02:11;101451.84;;;1.26;60.24
67931;BME280;63902;52.000;5.954;2023-04-06T00:03:11;101464.97;;;1.30;59.71
67931;BME280;63902;52.000;5.954;2023-04-06T00:04:12;101467.56;;;1.30;59.88
67931;BME280;63902;52.000;5.954;2023-04-06T00:05:12;101467.56;;;1.30;60.14
67931;BME280;63902;52.000;5.954;2023-04-06T00:06:13;101455.34;;;1.28;60.24
67931;BME280;63902;52.000;5.954;2023-04-06T00:07:13;101465.81;;;1.26;60.05
67931;BME280;63902;52.000;5.954;2023-04-06T00:08:14;101467.53;;;1.24;60.20
67931;BME280;63902;52.000;5.954;2023-04-06T00:09:14;101461.41;;;1.22;60.09
67931;BME280;63902;52.000;5.954;2023-04-06T00:10:15;101460.53;;;1.22;60.09
67931;BME280;63902;52.000;5.954;2023-04-06T00:11:16;101456.19;;;1.21;60.51
67931;BME280;63902;52.000;5.954;2023-04-06T00:12:16;101443.03;;;1.10;60.08
67931;BME280;63902;52.000;5.954;2023-04-06T00:13:17;101442.19;;;1.14;60.14
67931;BME280;63902;52.000;5.954;2023-04-06T00:14:19;101452.63;;;1.14;60.22
67931;BME280;63902;52.000;5.954;2023-04-06T00:15:19;101443.91;;;1.10;60.79
67931;BME280;63902;52.000;5.954;2023-04-06T00:16:20;101449.13;;;1.10;60.20
67931;BME280;63902;52.000;5.954;2023-04-06T00:17:20;101443.03;;;1.07;60.43
67931;BME280;63902;52.000;5.954;2023-04-06T00:18:22;101448.25;;;1.08;60.51
67931;BME280;63902;52.000;5.954;2023-04-06T00:19:22;101433.41;;;1.01;60.83
67931;BME280;63902;52.000;5.954;2023-04-06T00:20:23;101442.13;;;1.06;60.45
67931;BME280;63902;52.000;5.954;2023-04-06T00:21:23;101446.50;;;1.07;60.47
67931;BME280;63902;52.000;5.954;2023-04-06T00:22:24;101450.84;;;1.08;60.37
67931;BME280;63902;52.000;5.954;2023-04-06T00:23:24;101435.13;;;1.02;60.67
67931;BME280;63902;52.000;5.954;2023-04-06T00:24:25;101446.50;;;1.07;60.45
67931;BME280;63902;52.000;5.954;2023-04-06T00:25:25;101445.63;;;1.07;60.29
67931;BME280;63902;52.000;5.954;2023-04-06T00:26:26;101443.88;;;1.07;60.45
67931;BME280;63902;52.000;5.954;2023-04-06T00:27:26;101443.88;;;1.07;60.39
67931;BME280;63902;52.000;5.954;2023-04-06T00:28:27;101435.13;;;1.02;60.62
67931;BME280;63902;52.000;5.954;2023-04-06T00:29:28;101438.63;;;1.06;60.44
67931;BME280;63902;52.000;5.954;2023-04-06T00:30:29;101425.53;;;0.98;60.80
67931;BME280;63902;52.000;5.954;2023-04-06T00:31:29;101429.88;;;0.99;60.94
67931;BME280;63902;52.000;5.954;2023-04-06T00:32:30;101436.88;;;1.03;60.54
67931;BME280;63902;52.000;5.954;2023-04-06T00:33:30;101440.34;;;1.02;60.70
67931;BME280;63902;52.000;5.954;2023-04-06T00:34:31;101437.72;;;1.01;60.67
67931;BME280;63902;52.000;5.954;2023-04-06T00:35:31;101436.84;;;1.00;60.91
67931;BME280;63902;52.000;5.954;2023-04-06T00:36:32;101435.97;;;0.97;60.98
67931;BME280;63902;52.000;5.954;2023-04-06T00:37:32;101426.38;;;0.97;61.26
67931;BME280;63902;52.000;5.954;2023-04-06T00:38:33;101423.78;;;0.96;60.89
67931;BME280;63902;52.000;5.954;2023-04-06T00:39:33;101426.38;;;0.96;61.14
67931;BME280;63902;52.000;5.954;2023-04-06T00:40:34;101434.19;;;0.93;61.37
67931;BME280;63902;52.000;5.954;2023-04-06T00:41:34;101430.69;;;0.91;61.33
67931;BME280;63902;52.000;5.954;2023-04-06T00:42:35;101415.81;;;0.82;60.95
67931;BME280;63902;52.000;5.954;2023-04-06T00:43:36;101419.31;;;0.85;61.30
67931;BME280;63902;52.000;5.954;2023-04-06T00:44:40;101427.19;;;0.87;61.56
67931;BME280;63902;52.000;5.954;2023-04-06T00:45:41;101423.69;;;0.86;61.44
67931;BME280;63902;52.000;5.954;2023-04-06T00:46:42;101417.59;;;0.86;61.56
67931;BME280;63902;52.000;5.954;2023-04-06T00:47:43;101421.06;;;0.85;61.21
67931;BME280;63902;52.000;5.954;2023-04-06T00:48:43;101416.72;;;0.85;61.53
67931;BME280;63902;52.000;5.954;2023-04-06T00:49:44;101398.34;;;0.75;61.54
67931;BME280;63902;52.000;5.954;2023-04-06T00:50:44;101422.81;;;0.84;61.63
67931;BME280;63902;52.000;5.954;2023-04-06T00:51:45;101420.19;;;0.83;61.49
67931;BME280;63902;52.000;5.954;2023-04-06T00:52:45;101418.41;;;0.79;61.63
67931;BME280;63902;52.000;5.954;2023-04-06T00:53:46;101414.97;;;0.81;61.68
67931;BME280;63902;52.000;5.954;2023-04-06T00:54:46;101418.41;;;0.79;61.82
67931;BME280;63902;52.000;5.954;2023-04-06T00:55:47;101411.41;;;0.78;61.89
67931;BME280;63902;52.000;5.954;2023-04-06T00:56:47;101413.19;;;0.79;61.63
67931;BME280;63902;52.000;5.954;2023-04-06T00:57:48;101412.31;;;0.80;61.57
67931;BME280;63902;52.000;5.954;2023-04-06T00:58:48;101411.44;;;0.79;61.43
67931;BME280;63902;52.000;5.954;2023-04-06T00:59:51;101418.41;;;0.79;61.50
67931;BME280;63902;52.000;5.954;2023-04-06T01:00:52;101404.47;;;0.77;61.52
67931;BME280;63902;52.000;5.954;2023-04-06T01:01:53;101418.41;;;0.76;61.85
67931;BME280;63902;52.000;5.954;2023-04-06T01:02:53;101408.78;;;0.75;61.66
67931;BME280;63902;52.000;5.954;2023-04-06T01:03:54;101410.50;;;0.73;61.38
67931;BME280;63902;52.000;5.954;2023-04-06T01:04:55;101412.28;;;0.74;61.95
67931;BME280;63902;52.000;5.954;2023-04-06T01:05:55;101407.03;;;0.71;61.95
67931;BME280;63902;52.000;5.954;2023-04-06T01:06:56;101399.16;;;0.68;61.67
67931;BME280;63902;52.000;5.954;2023-04-06T01:07:56;101411.38;;;0.72;61.68
67931;BME280;63902;52.000;5.954;2023-04-06T01:08:57;101391.31;;;0.64;61.53
67931;BME280;63902;52.000;5.954;2023-04-06T01:09:57;101405.25;;;0.70;61.82
67931;BME280;63902;52.000;5.954;2023-04-06T01:10:59;101401.78;;;0.68;61.86
67931;BME280;63902;52.000;5.954;2023-04-06T01:11:59;101399.16;;;0.68;61.97
67931;BME280;63902;52.000;5.954;2023-04-06T01:13:00;101400.88;;;0.67;62.09
67931;BME280;63902;52.000;5.954;2023-04-06T01:14:00;101400.00;;;0.66;62.22
67931;BME280;63902;52.000;5.954;2023-04-06T01:15:03;101398.28;;;0.65;61.71
67931;BME280;63902;52.000;5.954;2023-04-06T01:16:04;101393.94;;;0.64;62.25
67931;BME280;63902;52.000;5.954;2023-04-06T01:17:05;101393.91;;;0.63;62.06
67931;BME280;63902;52.000;5.954;2023-04-06T01:18:05;101396.47;;;0.61;61.93
67931;BME280;63902;52.000;5.954;2023-04-06T01:19:09;101393.00;;;0.59;62.22
67931;BME280;63902;52.000;5.954;2023-04-06T01:20:10;101393.00;;;0.59;62.04
67931;BME280;63902;52.000;5.954;2023-04-06T01:21:10;101393.88;;;0.61;62.10
67931;BME280;63902;52.000;5.954;2023-04-06T01:22:15;101358.94;;;0.42;61.89
67931;BME280;63902;52.000;5.954;2023-04-06T01:23:15;101354.56;;;0.40;62.07
67931;BME280;63902;52.000;5.954;2023-04-06T01:24:16;101393.00;;;0.59;62.18
67931;BME280;63902;52.000;5.954;2023-04-06T01:25:16;101386.91;;;0.59;62.22
67931;BME280;63902;52.000;5.954;2023-04-06T01:26:17;101387.75;;;0.58;62.13
67931;BME280;63902;52.000;5.954;2023-04-06T01:27:17;101380.81;;;0.57;62.44
67931;BME280;63902;52.000;5.954;2023-04-06T01:28:18;101377.25;;;0.52;61.86
67931;BME280;63902;52.000;5.954;2023-04-06T01:29:18;101385.13;;;0.55;62.21
67931;BME280;63902;52.000;5.954;2023-04-06T01:30:19;101380.75;;;0.52;62.22
67931;BME280;63902;52.000;5.954;2023-04-06T01:31:19;101378.13;;;0.52;63.18
67931;BME280;63902;52.000;5.954;2023-04-06T01:32:20;101372.03;;;0.52;62.76
67931;BME280;63902;52.000;5.954;2023-04-06T01:33:20;101337.06;;;0.28;62.46
67931;BME280;63902;52.000;5.954;2023-04-06T01:34:21;101372.88;;;0.49;62.86
67931;BME280;63902;52.000;5.954;2023-04-06T01:35:21;101376.41;;;0.51;62.76
67931;BME280;63902;52.000;5.954;2023-04-06T01:36:22;101382.47;;;0.50;62.49
67931;BME280;63902;52.000;5.954;2023-04-06T01:37:24;101368.53;;;0.50;62.59
67931;BME280;63902;52.000;5.954;2023-04-06T01:38:24;101381.59;;;0.48;62.47
67931;BME280;63902;52.000;5.954;2023-04-06T01:39:25;101372.84;;;0.48;62.68
67931;BME280;63902;52.000;5.954;2023-04-06T01:40:25;101358.91;;;0.39;62.95
67931;BME280;63902;52.000;5.954;2023-04-06T01:41:26;101351.03;;;0.38;62.59
67931;BME280;63902;52.000;5.954;2023-04-06T01:42:26;101367.63;;;0.44;62.56
67931;BME280;63902;52.000;5.954;2023-04-06T01:43:27;101358.88;;;0.38;62.58
67931;BME280;63902;52.000;5.954;2023-04-06T01:44:27;101370.22;;;0.44;62.64
67931;BME280;63902;52.000;5.954;2023-04-06T01:45:28;101369.34;;;0.41;62.76
67931;BME280;63902;52.000;5.954;2023-04-06T01:46:28;101369.34;;;0.41;62.58
67931;BME280;63902;52.000;5.954;2023-04-06T01:47:29;101374.56;;;0.39;63.03
67931;BME280;63902;52.000;5.954;2023-04-06T01:48:29;101371.91;;;0.38;62.52
67931;BME280;63902;52.000;5.954;2023-04-06T01:49:30;101361.47;;;0.38;62.87
67931;BME280;63902;52.000;5.954;2023-04-06T01:50:30;101364.97;;;0.37;62.80
67931;BME280;63902;52.000;5.954;2023-04-06T01:51:31;101367.56;;;0.37;62.92
67931;BME280;63902;52.000;5.954;2023-04-06T01:52:32;101363.19;;;0.36;63.07
67931;BME280;63902;52.000;5.954;2023-04-06T01:53:33;101343.94;;;0.23;63.46
67931;BME280;63902;52.000;5.954;2023-04-06T01:54:34;101364.94;;;0.34;62.75
67931;BME280;63902;52.000;5.954;2023-04-06T01:55:34;101361.44;;;0.32;63.06
67931;BME280;63902;52.000;5.954;2023-04-06T01:56:34;101362.25;;;0.31;63.28
67931;BME280;63902;52.000;5.954;2023-04-06T01:57:35;101349.16;;;0.21;62.98
67931;BME280;63902;52.000;5.954;2023-04-06T01:58:35;101358.78;;;0.30;63.26
67931;BME280;63902;52.000;5.954;2023-04-06T01:59:36;101344.81;;;0.25;63.22
67931;BME280;63902;52.000;5.954;2023-04-06T02:00:37;101356.19;;;0.29;62.92
67931;BME280;63902;52.000;5.954;2023-04-06T02:01:37;101356.19;;;0.29;63.16
67931;BME280;63902;52.000;5.954;2023-04-06T02:02:38;101357.03;;;0.26;63.27
67931;BME280;63902;52.000;5.954;2023-04-06T02:03:38;101357.03;;;0.28;63.30
67931;BME280;63902;52.000;5.954;2023-04-06T02:04:38;101351.81;;;0.28;63.22
67931;BME280;63902;52.000;5.954;2023-04-06T02:05:39;101352.69;;;0.27;63.39
67931;BME280;63902;52.000;5.954;2023-04-06T02:06:39;101353.53;;;0.27;63.12
67931;BME280;63902;52.000;5.954;2023-04-06T02:07:41;101349.16;;;0.21;63.10
67931;BME280;63902;52.000;5.954;2023-04-06T02:08:42;101347.44;;;0.24;63.70
67931;BME280;63902;52.000;5.954;2023-04-06T02:09:42;101338.72;;;0.20;63.70
67931;BME280;63902;52.000;5.954;2023-04-06T02:10:43;101350.91;;;0.22;63.63
67931;BME280;63902;52.000;5.954;2023-04-06T02:11:43;101350.91;;;0.24;63.23
67931;BME280;63902;52.000;5.954;2023-04-06T02:12:44;101350.03;;;0.24;63.34
67931;BME280;63902;52.000;5.954;2023-04-06T02:13:44;101347.44;;;0.24;63.30
67931;BME280;63902;52.000;5.954;2023-04-06T02:14:45;101346.56;;;0.23;63.41
67931;BME280;63902;52.000;5.954;2023-04-06T02:15:45;101347.41;;;0.20;63.95
67931;BME280;63902;52.000;5.954;2023-04-06T02:16:46;101343.06;;;0.21;64.07
67931;BME280;63902;52.000;5.954;2023-04-06T02:17:46;101323.75;;;0.04;63.93
67931;BME280;63902;52.000;5.954;2023-04-06T02:18:47;101308.09;;;0.01;64.06
67931;BME280;63902;52.000;5.954;2023-04-06T02:19:47;101348.25;;;0.19;63.79
67931;BME280;63902;52.000;5.954;2023-04-06T02:20:48;101316.78;;;0.01;63.89
67931;BME280;63902;52.000;5.954;2023-04-06T02:21:48;101337.72;;;0.10;63.98
67931;BME280;63902;52.000;5.954;2023-04-06T02:22:50;101339.50;;;0.11;63.82
67931;BME280;63902;52.000;5.954;2023-04-06T02:23:50;101343.84;;;0.12;63.84
67931;BME280;63902;52.000;5.954;2023-04-06T02:24:51;101317.69;;;0.03;64.15
67931;BME280;63902;52.000;5.954;2023-04-06T02:25:51;101338.59;;;0.09;63.75
67931;BME280;63902;52.000;5.954;2023-04-06T02:26:52;101335.13;;;0.10;63.98
67931;BME280;63902;52.000;5.954;2023-04-06T02:27:52;101337.72;;;0.10;64.12
67931;BME280;63902;52.000;5.954;2023-04-06T02:28:53;101339.50;;;0.11;64.06
67931;BME280;63902;52.000;5.954;2023-04-06T02:29:53;101332.53;;;0.12;64.36
67931;BME280;63902;52.000;5.954;2023-04-06T02:30:54;101324.66;;;0.07;64.13
67931;BME280;63902;52.000;5.954;2023-04-06T02:31:54;101333.41;;;0.12;64.34
67931;BME280;63902;52.000;5.954;2023-04-06T02:32:55;101327.31;;;0.12;63.77
67931;BME280;63902;52.000;5.954;2023-04-06T02:33:55;101329.94;;;0.13;63.92
67931;BME280;63902;52.000;5.954;2023-04-06T02:34:56;101330.81;;;0.14;63.98
67931;BME280;63902;52.000;5.954;2023-04-06T02:35:56;101323.84;;;0.13;64.15
67931;BME280;63902;52.000;5.954;2023-04-06T02:36:57;101324.72;;;0.13;64.23
67931;BME280;63902;52.000;5.954;2023-04-06T02:37:58;101308.97;;;0.04;64.10
67931;BME280;63902;52.000;5.954;2023-04-06T02:38:59;101326.44;;;0.13;64.17
67931;BME280;63902;52.000;5.954;2023-04-06T02:39:59;101330.81;;;0.15;64.52
67931;BME280;63902;52.000;5.954;2023-04-06T02:41:00;101290.66;;;-0.05;64.19
67931;BME280;63902;52.000;5.954;2023-04-06T02:42:00;101328.19;;;0.14;64.21
67931;BME280;63902;52.000;5.954;2023-04-06T02:43:01;101328.19;;;0.12;64.28
67931;BME280;63902;52.000;5.954;2023-04-06T02:44:02;101327.31;;;0.12;64.21
67931;BME280;63902;52.000;5.954;2023-04-06T02:45:03;101326.47;;;0.11;64.11
67931;BME280;63902;52.000;5.954;2023-04-06T02:46:04;101319.50;;;0.12;64.37
67931;BME280;63902;52.000;5.954;2023-04-06T02:47:04;101325.59;;;0.12;64.33
67931;BME280;63902;52.000;5.954;2023-04-06T02:48:05;101321.25;;;0.11;63.96
67931;BME280;63902;52.000;5.954;2023-04-06T02:49:05;101308.16;;;0.10;63.93
67931;BME280;63902;52.000;5.954;2023-04-06T02:50:06;101316.88;;;0.13;63.89
67931;BME280;63902;52.000;5.954;2023-04-06T02:51:07;101319.50;;;0.13;64.44
67931;BME280;63902;52.000;5.954;2023-04-06T02:52:07;101320.44;;;0.17;64.29
67931;BME280;63902;52.000;5.954;2023-04-06T02:53:09;101305.53;;;0.08;64.31
67931;BME280;63902;52.000;5.954;2023-04-06T02:54:09;101312.56;;;0.15;64.48
67931;BME280;63902;52.000;5.954;2023-04-06T02:55:10;101323.88;;;0.16;64.29
67931;BME280;63902;52.000;5.954;2023-04-06T02:56:10;101325.66;;;0.17;64.05
67931;BME280;63902;52.000;5.954;2023-04-06T02:57:11;101287.19;;;-0.03;64.60
67931;BME280;63902;52.000;5.954;2023-04-06T02:58:11;101319.53;;;0.16;64.54
67931;BME280;63902;52.000;5.954;2023-04-06T02:59:12;101312.53;;;0.12;64.04
67931;BME280;63902;52.000;5.954;2023-04-06T03:00:13;101296.84;;;0.08;64.53
67931;BME280;63902;52.000;5.954;2023-04-06T03:01:13;101301.22;;;0.10;64.44
67931;BME280;63902;52.000;5.954;2023-04-06T03:02:14;101312.56;;;0.15;64.20
67931;BME280;63902;52.000;5.954;2023-04-06T03:03:14;101308.25;;;0.19;64.64
67931;BME280;63902;52.000;5.954;2023-04-06T03:04:15;101313.47;;;0.19;64.45
67931;BME280;63902;52.000;5.954;2023-04-06T03:05:15;101304.81;;;0.20;64.31
67931;BME280;63902;52.000;5.954;2023-04-06T03:06:16;101296.88;;;0.14;64.25
67931;BME280;63902;52.000;5.954;2023-04-06T03:07:16;101296.03;;;0.13;64.18
67931;BME280;63902;52.000;5.954;2023-04-06T03:08:18;101304.78;;;0.21;64.46
67931;BME280;63902;52.000;5.954;2023-04-06T03:09:19;101310.91;;;0.24;64.42
67931;BME280;63902;52.000;5.954;2023-04-06T03:10:19;101303.94;;;0.22;64.58
67931;BME280;63902;52.000;5.954;2023-04-06T03:11:20;101310.97;;;0.28;64.82
67931;BME280;63902;52.000;5.954;2023-04-06T03:12:20;101307.44;;;0.28;64.54
67931;BME280;63902;52.000;5.954;2023-04-06T03:13:21;101304.84;;;0.28;64.34
67931;BME280;63902;52.000;5.954;2023-04-06T03:14:21;101300.56;;;0.31;64.63
67931;BME280;63902;52.000;5.954;2023-04-06T03:15:22;101303.19;;;0.34;64.25
67931;BME280;63902;52.000;5.954;2023-04-06T03:16:22;101290.09;;;0.28;64.34
67931;BME280;63902;52.000;5.954;2023-04-06T03:17:23;101309.28;;;0.35;64.24
67931;BME280;63902;52.000;5.954;2023-04-06T03:18:25;101307.53;;;0.35;64.48
67931;BME280;63902;52.000;5.954;2023-04-06T03:19:25;101291.84;;;0.32;64.61
67931;BME280;63902;52.000;5.954;2023-04-06T03:20:26;101293.63;;;0.38;64.56
67931;BME280;63902;52.000;5.954;2023-04-06T03:21:26;101274.38;;;0.24;64.04
67931;BME280;63902;52.000;5.954;2023-04-06T03:22:28;101295.38;;;0.37;64.39
67931;BME280;63902;52.000;5.954;2023-04-06T03:23:30;101297.13;;;0.40;64.22
67931;BME280;63902;52.000;5.954;2023-04-06T03:24:30;101284.88;;;0.33;64.24
67931;BME280;63902;52.000;5.954;2023-04-06T03:25:31;101292.75;;;0.39;64.35
67931;BME280;63902;52.000;5.954;2023-04-06T03:26:31;101297.13;;;0.41;64.23
67931;BME280;63902;52.000;5.954;2023-04-06T03:27:32;101292.78;;;0.42;64.45
67931;BME280;63902;52.000;5.954;2023-04-06T03:28:32;101289.31;;;0.41;64.52
67931;BME280;63902;52.000;5.954;2023-04-06T03:29:33;101284.06;;;0.38;64.49
67931;BME280;63902;52.000;5.954;2023-04-06T03:30:33;101294.53;;;0.40;64.66
67931;BME280;63902;52.000;5.954;2023-04-06T03:31:34;101288.41;;;0.38;64.76
67931;BME280;63902;52.000;5.954;2023-04-06T03:32:34;101288.44;;;0.41;64.49
67931;BME280;63902;52.000;5.954;2023-04-06T03:33:35;101285.81;;;0.38;64.30
67931;BME280;63902;52.000;5.954;2023-04-06T03:34:35;101289.31;;;0.40;64.84
67931;BME280;63902;52.000;5.954;2023-04-06T03:35:36;101282.34;;;0.40;64.56
67931;BME280;63902;52.000;5.954;2023-04-06T03:36:36;101286.69;;;0.41;64.88
67931;BME280;63902;52.000;5.954;2023-04-06T03:37:37;101291.94;;;0.44;64.67
67931;BME280;63902;52.000;5.954;2023-04-06T03:38:38;101291.06;;;0.44;65.37
67931;BME280;63902;52.000;5.954;2023-04-06T03:39:39;101286.72;;;0.43;64.87
67931;BME280;63902;52.000;5.954;2023-04-06T03:40:39;101278.84;;;0.38;65.60
67931;BME280;63902;52.000;5.954;2023-04-06T03:41:40;101295.44;;;0.45;65.16
67931;BME280;63902;52.000;5.954;2023-04-06T03:42:40;101263.19;;;0.34;65.22
67931;BME280;63902;52.000;5.954;2023-04-06T03:43:41;101280.59;;;0.38;64.97
67931;BME280;63902;52.000;5.954;2023-04-06T03:44:41;101285.03;;;0.48;65.00
67931;BME280;63902;52.000;5.954;2023-04-06T03:45:42;101283.28;;;0.49;64.88
67931;BME280;63902;52.000;5.954;2023-04-06T03:46:42;101291.13;;;0.52;64.94
67931;BME280;63902;52.000;5.954;2023-04-06T03:47:43;101286.78;;;0.52;65.26
67931;BME280;63902;52.000;5.954;2023-04-06T03:48:45;101285.06;;;0.54;65.16
67931;BME280;63902;52.000;5.954;2023-04-06T03:49:45;101289.41;;;0.55;64.95
67931;BME280;63902;52.000;5.954;2023-04-06T03:50:46;101284.22;;;0.57;65.03
67931;BME280;63902;52.000;5.954;2023-04-06T03:51:46;101285.97;;;0.59;64.73
67931;BME280;63902;52.000;5.954;2023-04-06T03:52:47;101282.50;;;0.60;64.99
67931;BME280;63902;52.000;5.954;2023-04-06T03:53:48;101285.97;;;0.59;64.99
67931;BME280;63902;52.000;5.954;2023-04-06T03:54:49;101276.41;;;0.60;64.75
67931;BME280;63902;52.000;5.954;2023-04-06T03:55:49;101284.22;;;0.58;65.04
67931;BME280;63902;52.000;5.954;2023-04-06T03:56:50;101276.38;;;0.58;65.06
67931;BME280;63902;52.000;5.954;2023-04-06T03:57:50;101276.38;;;0.58;64.95
67931;BME280;63902;52.000;5.954;2023-04-06T03:58:51;101285.13;;;0.59;65.53
67931;BME280;63902;52.000;5.954;2023-04-06T03:59:51;101279.00;;;0.57;65.24
67931;BME280;63902;52.000;5.954;2023-04-06T04:00:52;101283.34;;;0.58;64.99
67931;BME280;63902;52.000;5.954;2023-04-06T04:01:52;101279.88;;;0.57;65.38
67931;BME280;63902;52.000;5.954;2023-04-06T04:02:53;101262.41;;;0.53;65.18
67931;BME280;63902;52.000;5.954;2023-04-06T04:03:53;101274.66;;;0.60;65.29
67931;BME280;63902;52.000;5.954;2023-04-06T04:04:54;101279.03;;;0.60;65.20
67931;BME280;63902;52.000;5.954;2023-04-06T04:05:54;101283.38;;;0.61;65.70
67931;BME280;63902;52.000;5.954;2023-04-06T04:06:54;101275.53;;;0.59;65.64
67931;BME280;63902;52.000;5.954;2023-04-06T04:07:55;101271.22;;;0.64;65.29
67931;BME280;63902;52.000;5.954;2023-04-06T04:08:57;101275.56;;;0.64;65.37
67931;BME280;63902;52.000;5.954;2023-04-06T04:09:57;101272.09;;;0.65;65.33
67931;BME280;63902;52.000;5.954;2023-04-06T04:10:58;101277.31;;;0.65;65.35
67931;BME280;63902;52.000;5.954;2023-04-06T04:11:58;101283.41;;;0.65;65.56
67931;BME280;63902;52.000;5.954;2023-04-06T04:12:59;101281.69;;;0.64;65.37
67931;BME280;63902;52.000;5.954;2023-04-06T04:13:59;101272.09;;;0.62;65.81
67931;BME280;63902;52.000;5.954;2023-04-06T04:15:00;101272.06;;;0.63;66.09
67931;BME280;63902;52.000;5.954;2023-04-06T04:16:00;101279.06;;;0.64;65.81
67931;BME280;63902;52.000;5.954;2023-04-06T04:17:01;101278.19;;;0.67;65.92
67931;BME280;63902;52.000;5.954;2023-04-06T04:18:01;101274.72;;;0.70;65.34
67931;BME280;63902;52.000;5.954;2023-04-06T04:19:02;101279.97;;;0.73;65.67
67931;BME280;63902;52.000;5.954;2023-04-06T04:20:03;101255.50;;;0.58;65.89
67931;BME280;63902;52.000;5.954;2023-04-06T04:21:03;101270.41;;;0.70;65.75
67931;BME280;63902;52.000;5.954;2023-04-06T04:22:04;101275.66;;;0.78;65.62
67931;BME280;63902;52.000;5.954;2023-04-06T04:23:04;101280.91;;;0.79;65.31
67931;BME280;63902;52.000;5.954;2023-04-06T04:24:06;101278.25;;;0.78;65.25
67931;BME280;63902;52.000;5.954;2023-04-06T04:25:08;101273.03;;;0.78;65.51
67931;BME280;63902;52.000;5.954;2023-04-06T04:26:08;101276.50;;;0.78;65.09
67931;BME280;63902;52.000;5.954;2023-04-06T04:27:09;101279.13;;;0.77;65.29
67931;BME280;63902;52.000;5.954;2023-04-06T04:28:09;101282.66;;;0.82;65.35
67931;BME280;63902;52.000;5.954;2023-04-06T04:29:10;101276.53;;;0.77;65.65
67931;BME280;63902;52.000;5.954;2023-04-06T04:30:11;101286.09;;;0.81;65.45
67931;BME280;63902;52.000;5.954;2023-04-06T04:31:11;101282.66;;;0.82;65.52
67931;BME280;63902;52.000;5.954;2023-04-06T04:32:12;101277.38;;;0.77;65.34
67931;BME280;63902;52.000;5.954;2023-04-06T04:33:12;101271.31;;;0.77;65.43
67931;BME280;63902;52.000;5.954;2023-04-06T04:34:12;101283.56;;;0.87;65.33
67931;BME280;63902;52.000;5.954;2023-04-06T04:35:13;101281.81;;;0.89;65.56
67931;BME280;63902;52.000;5.954;2023-04-06T04:36:14;101277.47;;;0.91;65.54
67931;BME280;63902;52.000;5.954;2023-04-06T04:37:14;101252.13;;;0.73;65.21
67931;BME280;63902;52.000;5.954;2023-04-06T04:38:15;101283.53;;;0.85;65.54
67931;BME280;63902;52.000;5.954;2023-04-06T04:39:16;101286.16;;;0.87;65.18
67931;BME280;63902;52.000;5.954;2023-04-06T04:40:17;101287.03;;;0.89;65.43
67931;BME280;63902;52.000;5.954;2023-04-06T04:41:17;101291.41;;;0.90;65.49
67931;BME280;63902;52.000;5.954;2023-04-06T04:42:18;101287.91;;;0.89;65.13
67931;BME280;63902;52.000;5.954;2023-04-06T04:43:18;101279.19;;;0.87;65.36
67931;BME280;63902;52.000;5.954;2023-04-06T04:44:19;101289.66;;;0.91;65.29
67931;BME280;63902;52.000;5.954;2023-04-06T04:45:19;101277.44;;;0.85;65.64
67931;BME280;63902;52.000;5.954;2023-04-06T04:46:20;101283.56;;;0.90;65.54
67931;BME280;63902;52.000;5.954;2023-04-06T04:47:20;101282.72;;;0.93;65.53
67931;BME280;63902;52.000;5.954;2023-04-06T04:48:21;101280.13;;;0.93;65.61
67931;BME280;63902;52.000;5.954;2023-04-06T04:49:21;101278.34;;;0.95;65.73
67931;BME280;63902;52.000;5.954;2023-04-06T04:50:22;101280.97;;;0.95;65.49
67931;BME280;63902;52.000;5.954;2023-04-06T04:51:22;101247.81;;;0.77;65.61
67931;BME280;63902;52.000;5.954;2023-04-06T04:52:23;101274.91;;;0.97;65.56
67931;BME280;63902;52.000;5.954;2023-04-06T04:53:23;101275.78;;;0.96;65.33
67931;BME280;63902;52.000;5.954;2023-04-06T04:54:25;101257.44;;;0.88;65.56
67931;BME280;63902;52.000;5.954;2023-04-06T04:55:26;101275.78;;;0.96;65.59
67931;BME280;63902;52.000;5.954;2023-04-06T04:56:26;101266.16;;;0.92;65.40
67931;BME280;63902;52.000;5.954;2023-04-06T04:57:27;101274.91;;;0.99;65.69
67931;BME280;63902;52.000;5.954;2023-04-06T04:58:27;101277.53;;;0.99;65.54
67931;BME280;63902;52.000;5.954;2023-04-06T04:59:27;101267.94;;;0.98;65.88
67931;BME280;63902;52.000;5.954;2023-04-06T05:00:28;101273.13;;;0.95;65.81
67931;BME280;63902;52.000;5.954;2023-04-06T05:01:28;101270.56;;;0.99;65.56
67931;BME280;63902;52.000;5.954;2023-04-06T05:02:29;101236.50;;;0.81;65.83
67931;BME280;63902;52.000;5.954;2023-04-06T05:03:32;101271.44;;;1.00;65.82
67931;BME280;63902;52.000;5.954;2023-04-06T05:04:33;101276.69;;;1.01;65.84
67931;BME280;63902;52.000;5.954;2023-04-06T05:05:33;101254.84;;;0.95;65.47
67931;BME280;63902;52.000;5.954;2023-04-06T05:06:34;101266.22;;;0.98;65.83
67931;BME280;63902;52.000;5.954;2023-04-06T05:07:34;101260.13;;;1.02;65.71
67931;BME280;63902;52.000;5.954;2023-04-06T05:08:35;101267.94;;;0.99;65.87
67931;BME280;63902;52.000;5.954;2023-04-06T05:09:36;101261.00;;;1.01;65.75
67931;BME280;63902;52.000;5.954;2023-04-06T05:10:37;101229.56;;;0.86;65.97
67931;BME280;63902;52.000;5.954;2023-04-06T05:11:37;101255.78;;;1.01;65.58
67931;BME280;63902;52.000;5.954;2023-04-06T05:12:38;101265.38;;;1.04;66.01
67931;BME280;63902;52.000;5.954;2023-04-06T05:13:39;101267.13;;;1.08;66.03
67931;BME280;63902;52.000;5.954;2023-04-06T05:14:39;101243.53;;;0.94;66.21
67931;BME280;63902;52.000;5.954;2023-04-06T05:15:40;101270.59;;;1.11;65.81
67931;BME280;63902;52.000;5.954;2023-04-06T05:16:41;101260.16;;;1.07;65.92
67931;BME280;63902;52.000;5.954;2023-04-06T05:17:42;101268.00;;;1.11;65.97
67931;BME280;63902;52.000;5.954;2023-04-06T05:18:42;101263.66;;;1.10;66.16
67931;BME280;63902;52.000;5.954;2023-04-06T05:19:43;101265.38;;;1.11;65.88
67931;BME280;63902;52.000;5.954;2023-04-06T05:20:43;101268.00;;;1.15;65.99